Time,TemperatureF,DewpointF,PressureIn,WindDirection,WindDirectionDegrees,WindSpeedMPH,WindSpeedGustMPH,Humidity,HourlyPrecipIn,Conditions,Clouds,dailyrainin,SoftwareType,DateUTC
2013-04-30 06:01:00,70.9,33.3,28.76,South,177,9.6,9.6,25,0.00,,,0.00,VWS V14.01,2013-04-30 11:01:00,
2013-04-30 06:06:00,70.9,33.3,28.76,South,179,3.6,14.5,25,0.00,,,0.00,VWS V14.01,2013-04-30 11:06:00,
2013-04-30 06:11:00,70.9,33.3,28.79,South,180,5.4,14.5,25,0.00,,,0.00,VWS V14.01,2013-04-30 11:11:00,
2013-04-30 06:16:00,70.7,33.2,28.79,South,186,7.6,14.1,25,0.00,,,0.00,VWS V14.01,2013-04-30 11:16:00,
2013-04-30 06:21:00,70.7,32.2,28.79,South,183,4.0,13.2,24,0.00,,,0.00,VWS V14.01,2013-04-30 11:21:00,
2013-04-30 06:26:00,70.7,32.2,28.79,WNW,284,8.7,13.6,24,0.00,,,0.00,VWS V14.01,2013-04-30 11:26:00,
2013-04-30 06:31:00,70.5,32.0,28.79,South,172,12.3,13.6,24,0.00,,,0.00,VWS V14.01,2013-04-30 11:31:00,
2013-04-30 06:36:00,70.5,32.0,28.79,South,191,8.7,12.3,24,0.00,,,0.00,VWS V14.01,2013-04-30 11:36:00,
2013-04-30 06:41:00,70.5,32.0,28.79,South,179,8.3,12.3,24,0.00,,,0.00,VWS V14.01,2013-04-30 11:41:00,
2013-04-30 06:46:00,70.2,31.7,28.79,WNW,285,6.3,10.5,24,0.00,,,0.00,VWS V14.01,2013-04-30 11:46:00,
2013-04-30 06:51:00,70.2,31.7,28.79,South,174,8.1,10.5,24,0.00,,,0.00,VWS V14.01,2013-04-30 11:51:00,
2013-04-30 06:56:00,70.2,31.7,28.79,WSW,240,8.1,15.0,24,0.00,,,0.00,VWS V14.01,2013-04-30 11:56:00,
2013-04-30 07:01:00,70.2,32.7,28.79,SSW,195,5.4,15.0,25,0.00,,,0.00,VWS V14.01,2013-04-30 12:01:00,
2013-04-30 07:06:00,70.0,32.6,28.79,South,184,6.3,13.2,25,0.00,,,0.00,VWS V14.01,2013-04-30 12:06:00,
2013-04-30 07:11:00,70.2,31.7,28.79,South,181,12.8,12.8,24,0.00,,,0.00,VWS V14.01,2013-04-30 12:11:00,
2013-04-30 07:16:00,70.2,31.7,28.79,West,278,8.1,12.8,24,0.00,,,0.00,VWS V14.01,2013-04-30 12:16:00,
2013-04-30 07:21:00,70.2,31.7,28.79,SSE,163,7.6,10.5,24,0.00,,,0.00,VWS V14.01,2013-04-30 12:21:00,
2013-04-30 07:26:00,70.2,31.7,28.82,SSW,203,4.0,12.3,24,0.00,,,0.00,VWS V14.01,2013-04-30 12:26:00,
2013-04-30 07:31:00,70.5,32.0,28.82,West,279,3.1,12.3,24,0.00,,,0.00,VWS V14.01,2013-04-30 12:31:00,
2013-04-30 07:36:00,70.7,32.2,28.82,South,184,7.6,10.1,24,0.00,,,0.00,VWS V14.01,2013-04-30 12:36:00,
2013-04-30 07:41:00,70.9,32.3,28.82,WNW,292,6.3,13.6,24,0.00,,,0.00,VWS V14.01,2013-04-30 12:41:00,
2013-04-30 07:46:00,71.2,32.6,28.82,SSE,167,7.2,13.6,24,0.00,,,0.00,VWS V14.01,2013-04-30 12:46:00,
2013-04-30 07:51:00,71.4,31.7,28.82,NNW,330,8.1,12.8,23,0.00,,,0.00,VWS V14.01,2013-04-30 12:51:00,
2013-04-30 07:56:00,72.0,32.2,28.82,South,178,6.3,14.5,23,0.00,,,0.00,VWS V14.01,2013-04-30 12:56:00,
2013-04-30 08:01:00,72.3,32.5,28.82,SSW,192,3.6,14.5,23,0.00,,,0.00,VWS V14.01,2013-04-30 13:01:00,
2013-04-30 08:05:00,72.7,32.8,28.82,SW,221,5.8,11.0,23,0.00,,,0.00,VWS V14.01,2013-04-30 13:05:00,
2013-04-30 08:10:00,72.9,32.9,28.85,South,185,4.0,14.1,23,0.00,,,0.00,VWS V14.01,2013-04-30 13:10:00,
2013-04-30 08:15:00,73.0,33.1,28.85,ENE,62,6.3,14.1,23,0.00,,,0.00,VWS V14.01,2013-04-30 13:15:00,
2013-04-30 08:20:00,73.0,32.0,28.85,SSW,193,8.1,14.1,22,0.00,,,0.00,VWS V14.01,2013-04-30 13:20:00,
2013-04-30 08:25:00,73.2,32.1,28.85,South,173,4.9,14.5,22,0.00,,,0.00,VWS V14.01,2013-04-30 13:25:00,
2013-04-30 08:30:00,73.0,32.0,28.85,South,177,8.3,14.5,22,0.00,,,0.00,VWS V14.01,2013-04-30 13:30:00,
2013-04-30 08:35:00,72.9,31.8,28.85,South,186,4.0,11.0,22,0.00,,,0.00,VWS V14.01,2013-04-30 13:35:00,
2013-04-30 08:40:00,72.5,31.5,28.85,South,186,6.3,11.0,22,0.00,,,0.00,VWS V14.01,2013-04-30 13:40:00,
2013-04-30 08:45:00,72.5,31.5,28.85,SSW,199,4.0,16.3,22,0.00,,,0.00,VWS V14.01,2013-04-30 13:45:00,
2013-04-30 08:50:00,73.2,32.1,28.85,SE,138,7.2,16.3,22,0.00,,,0.00,VWS V14.01,2013-04-30 13:50:00,
2013-04-30 08:55:00,73.4,32.3,28.85,South,190,12.3,12.3,22,0.00,,,0.00,VWS V14.01,2013-04-30 13:55:00,
2013-04-30 09:00:00,73.4,32.3,28.85,SSW,197,8.1,14.5,22,0.00,,,0.00,VWS V14.01,2013-04-30 14:00:00,
2013-04-30 09:05:00,73.6,31.3,28.85,SE,146,8.3,14.5,21,0.00,,,0.00,VWS V14.01,2013-04-30 14:05:00,
2013-04-30 09:10:00,74.3,33.0,28.85,South,185,7.6,8.3,22,0.00,,,0.00,VWS V14.01,2013-04-30 14:10:00,
2013-04-30 09:15:00,74.3,33.0,28.85,South,185,7.6,7.6,22,0.00,,,0.00,VWS V14.01,2013-04-30 14:15:00,
2013-04-30 09:20:00,74.7,33.3,28.85,SW,230,10.1,10.1,22,0.00,,,0.00,VWS V14.01,2013-04-30 14:20:00,
2013-04-30 09:25:00,74.7,33.3,28.85,South,182,10.1,10.1,22,0.00,,,0.00,VWS V14.01,2013-04-30 14:25:00,
2013-04-30 09:30:00,75.4,32.8,28.85,South,185,8.7,10.1,21,0.00,,,0.00,VWS V14.01,2013-04-30 14:30:00,
2013-04-30 09:35:00,75.4,32.8,28.85,SSE,167,11.0,11.0,21,0.00,,,0.00,VWS V14.01,2013-04-30 14:35:00,
2013-04-30 09:40:00,75.4,32.8,28.85,South,185,5.8,11.0,21,0.00,,,0.00,VWS V14.01,2013-04-30 14:40:00,
2013-04-30 09:45:00,75.4,32.8,28.85,SW,224,11.9,11.9,21,0.00,,,0.00,VWS V14.01,2013-04-30 14:45:00,
2013-04-30 09:50:00,75.4,32.8,28.85,ESE,115,14.5,14.5,21,0.00,,,0.00,VWS V14.01,2013-04-30 14:50:00,
2013-04-30 09:55:00,75.4,32.8,28.85,ESE,115,14.5,14.5,21,0.00,,,0.00,VWS V14.01,2013-04-30 14:55:00,
2013-04-30 10:00:00,75.4,32.8,28.85,SSE,165,6.3,14.5,21,0.00,,,0.00,VWS V14.01,2013-04-30 15:00:00,
2013-04-30 10:05:00,75.4,32.8,28.85,South,185,8.7,8.7,21,0.00,,,0.00,VWS V14.01,2013-04-30 15:05:00,
2013-04-30 10:10:00,75.4,32.8,28.85,SSW,211,12.8,12.8,21,0.00,,,0.00,VWS V14.01,2013-04-30 15:10:00,
2013-04-30 10:15:00,75.4,32.8,28.85,WSW,256,7.6,12.8,21,0.00,,,0.00,VWS V14.01,2013-04-30 15:15:00,
2013-04-30 10:20:00,75.4,32.8,28.85,SSE,164,6.3,7.6,21,0.00,,,0.00,VWS V14.01,2013-04-30 15:20:00,
2013-04-30 10:25:00,75.4,32.8,28.85,ENE,59,6.3,8.1,21,0.00,,,0.00,VWS V14.01,2013-04-30 15:25:00,
2013-04-30 10:30:00,75.4,32.8,28.85,ENE,59,6.3,6.3,21,0.00,,,0.00,VWS V14.01,2013-04-30 15:30:00,
2013-04-30 10:35:00,75.4,32.8,28.85,South,188,4.9,6.3,21,0.00,,,0.00,VWS V14.01,2013-04-30 15:35:00,
2013-04-30 10:40:00,75.4,32.8,28.85,South,188,4.9,4.9,21,0.00,,,0.00,VWS V14.01,2013-04-30 15:40:00,
2013-04-30 10:45:00,75.4,32.8,28.88,SE,136,3.6,5.8,21,0.00,,,0.00,VWS V14.01,2013-04-30 15:45:00,
2013-04-30 10:50:00,75.4,32.8,28.88,SE,136,3.6,3.6,21,0.00,,,0.00,VWS V14.01,2013-04-30 15:50:00,
2013-04-30 10:55:00,75.4,32.8,28.88,South,169,3.6,3.6,21,0.00,,,0.00,VWS V14.01,2013-04-30 15:55:00,
2013-04-30 11:00:00,75.4,32.8,28.88,SE,146,5.8,6.3,21,0.00,,,0.00,VWS V14.01,2013-04-30 16:00:00,
2013-04-30 11:05:00,75.4,32.8,28.88,SE,146,5.8,5.8,21,0.00,,,0.00,VWS V14.01,2013-04-30 16:05:00,
2013-04-30 11:10:00,75.4,32.8,28.88,SSW,206,9.2,9.2,21,0.00,,,0.00,VWS V14.01,2013-04-30 16:10:00,
2013-04-30 11:15:00,75.4,32.8,28.85,SSW,206,9.2,9.2,21,0.00,,,0.00,VWS V14.01,2013-04-30 16:15:00,
2013-04-30 11:20:00,75.4,32.8,28.85,SSW,206,9.2,9.2,21,0.00,,,0.00,VWS V14.01,2013-04-30 16:20:00,
2013-04-30 11:25:00,75.4,32.8,28.85,South,180,3.1,9.2,21,0.00,,,0.00,VWS V14.01,2013-04-30 16:25:00,
2013-04-30 11:30:00,75.4,32.8,28.85,South,180,3.1,3.1,21,0.00,,,0.00,VWS V14.01,2013-04-30 16:30:00,
2013-04-30 11:35:00,75.4,32.8,28.85,South,180,3.1,3.1,21,0.00,,,0.00,VWS V14.01,2013-04-30 16:35:00,
2013-04-30 11:40:00,81.7,36.8,28.85,South,180,3.1,3.1,20,0.00,,,0.00,VWS V14.01,2013-04-30 16:40:00,
2013-04-30 11:45:00,81.7,36.8,28.85,South,180,3.1,3.1,20,0.00,,,0.00,VWS V14.01,2013-04-30 16:45:00,
2013-04-30 11:50:00,81.7,36.8,28.85,South,180,3.1,3.1,20,0.00,,,0.00,VWS V14.01,2013-04-30 16:50:00,
2013-04-30 11:55:00,82.8,36.3,28.85,South,180,3.1,3.1,19,0.00,,,0.00,VWS V14.01,2013-04-30 16:55:00,
2013-04-30 12:00:00,82.8,36.3,28.85,South,180,3.1,3.1,19,0.00,,,0.00,VWS V14.01,2013-04-30 17:00:00,
2013-04-30 12:05:00,82.9,36.5,28.88,South,180,3.1,3.1,19,0.00,,,0.00,VWS V14.01,2013-04-30 17:05:00,
2013-04-30 12:10:00,83.1,36.6,28.88,South,180,3.1,3.1,19,0.00,,,0.00,VWS V14.01,2013-04-30 17:10:00,
2013-04-30 12:15:00,84.6,37.8,28.85,WSW,253,6.3,6.3,19,0.00,,,0.00,VWS V14.01,2013-04-30 17:15:00,
2013-04-30 12:20:00,84.2,37.5,28.85,NW,314,7.6,10.5,19,0.00,,,0.00,VWS V14.01,2013-04-30 17:20:00,
2013-04-30 12:25:00,83.8,37.2,28.88,West,270,5.4,10.5,19,0.00,,,0.00,VWS V14.01,2013-04-30 17:25:00,
2013-04-30 12:30:00,83.3,36.8,28.88,SSE,158,7.6,11.0,19,0.00,,,0.00,VWS V14.01,2013-04-30 17:30:00,
2013-04-30 12:35:00,83.8,37.2,28.88,South,186,2.7,11.0,19,0.00,,,0.00,VWS V14.01,2013-04-30 17:35:00,
2013-04-30 12:40:00,84.6,37.8,28.85,West,268,2.7,8.3,19,0.00,,,0.00,VWS V14.01,2013-04-30 17:40:00,
2013-04-30 12:45:00,85.5,38.5,28.85,SSE,148,6.3,7.6,19,0.00,,,0.00,VWS V14.01,2013-04-30 17:45:00,
2013-04-30 12:50:00,85.1,38.2,28.85,West,280,3.1,10.1,19,0.00,,,0.00,VWS V14.01,2013-04-30 17:50:00,
2013-04-30 12:55:00,84.6,37.8,28.88,ESE,119,6.7,10.1,19,0.00,,,0.00,VWS V14.01,2013-04-30 17:55:00,
2013-04-30 13:00:00,84.9,38.1,28.88,South,181,3.1,9.6,19,0.00,,,0.00,VWS V14.01,2013-04-30 18:00:00,
2013-04-30 13:05:00,84.7,38.0,28.88,SE,141,6.3,9.2,19,0.00,,,0.00,VWS V14.01,2013-04-30 18:05:00,
2013-04-30 13:10:00,84.2,37.5,28.85,WSW,242,2.7,8.3,19,0.00,,,0.00,VWS V14.01,2013-04-30 18:10:00,
2013-04-30 13:15:00,84.2,37.5,28.85,WSW,242,2.7,2.7,19,0.00,,,0.00,VWS V14.01,2013-04-30 18:15:00,
2013-04-30 13:20:00,84.2,37.5,28.85,West,277,3.6,5.4,19,0.00,,,0.00,VWS V14.01,2013-04-30 18:20:00,
2013-04-30 13:25:00,84.2,37.5,28.85,West,277,3.6,3.6,19,0.00,,,0.00,VWS V14.01,2013-04-30 18:25:00,
2013-04-30 13:30:00,84.2,37.5,28.85,WNW,286,5.4,5.4,19,0.00,,,0.00,VWS V14.01,2013-04-30 18:30:00,
2013-04-30 13:35:00,84.2,37.5,28.85,SW,220,4.0,5.4,19,0.00,,,0.00,VWS V14.01,2013-04-30 18:35:00,
2013-04-30 13:40:00,84.2,37.5,28.85,SW,220,4.0,4.0,19,0.00,,,0.00,VWS V14.01,2013-04-30 18:40:00,
2013-04-30 13:45:00,84.2,37.5,28.85,South,175,5.8,5.8,19,0.00,,,0.00,VWS V14.01,2013-04-30 18:45:00,
2013-04-30 13:50:00,84.2,37.5,28.85,South,175,5.8,5.8,19,0.00,,,0.00,VWS V14.01,2013-04-30 18:50:00,
2013-04-30 13:55:00,84.2,37.5,28.85,South,184,4.5,5.8,19,0.00,,,0.00,VWS V14.01,2013-04-30 18:55:00,
2013-04-30 14:00:00,84.2,37.5,28.85,South,184,4.5,4.5,19,0.00,,,0.00,VWS V14.01,2013-04-30 19:00:00,
2013-04-30 14:05:00,84.2,37.5,28.85,WSW,252,5.4,5.4,19,0.00,,,0.00,VWS V14.01,2013-04-30 19:05:00,
2013-04-30 14:10:00,84.2,37.5,28.85,South,176,3.1,5.4,19,0.00,,,0.00,VWS V14.01,2013-04-30 19:10:00,
2013-04-30 14:15:00,84.2,37.5,28.85,SE,141,5.8,5.8,19,0.00,,,0.00,VWS V14.01,2013-04-30 19:15:00,
2013-04-30 14:20:00,84.2,37.5,28.85,WNW,290,7.6,7.6,19,0.00,,,0.00,VWS V14.01,2013-04-30 19:20:00,
2013-04-30 14:25:00,84.2,37.5,28.85,SSE,147,4.0,7.6,19,0.00,,,0.00,VWS V14.01,2013-04-30 19:25:00,
2013-04-30 14:30:00,84.2,37.5,28.85,South,169,4.0,4.0,19,0.00,,,0.00,VWS V14.01,2013-04-30 19:30:00,
2013-04-30 14:35:00,84.2,37.5,28.85,South,169,4.0,4.0,19,0.00,,,0.00,VWS V14.01,2013-04-30 19:35:00,
2013-04-30 14:40:00,84.2,37.5,28.88,SSW,205,2.2,2.7,19,0.00,,,0.00,VWS V14.01,2013-04-30 19:40:00,
2013-04-30 14:45:00,84.2,37.5,28.88,West,281,7.6,7.6,19,0.00,,,0.00,VWS V14.01,2013-04-30 19:45:00,
2013-04-30 14:50:00,84.2,37.5,28.88,West,281,5.8,7.6,19,0.00,,,0.00,VWS V14.01,2013-04-30 19:50:00,
2013-04-30 14:55:00,84.2,37.5,28.88,West,260,2.2,5.8,19,0.00,,,0.00,VWS V14.01,2013-04-30 19:55:00,
2013-04-30 15:00:00,84.2,37.5,28.88,NNW,340,2.7,2.7,19,0.00,,,0.00,VWS V14.01,2013-04-30 20:00:00,
2013-04-30 15:05:00,84.2,37.5,28.88,ENE,59,4.9,4.9,19,0.00,,,0.00,VWS V14.01,2013-04-30 20:05:00,
2013-04-30 15:10:00,84.2,37.5,28.88,NNE,13,4.0,4.9,19,0.00,,,0.00,VWS V14.01,2013-04-30 20:10:00,
2013-04-30 15:15:00,84.2,37.5,28.88,NNE,13,4.0,4.0,19,0.00,,,0.00,VWS V14.01,2013-04-30 20:15:00,
2013-04-30 15:20:00,84.2,37.5,28.88,NNE,15,2.7,4.0,19,0.00,,,0.00,VWS V14.01,2013-04-30 20:20:00,
2013-04-30 15:25:00,84.2,37.5,28.88,NNE,15,2.7,2.7,19,0.00,,,0.00,VWS V14.01,2013-04-30 20:25:00,
2013-04-30 15:30:00,84.2,37.5,28.88,North,353,3.1,3.1,19,0.00,,,0.00,VWS V14.01,2013-04-30 20:30:00,
2013-04-30 15:35:00,84.2,37.5,28.88,North,8,5.4,5.4,19,0.00,,,0.00,VWS V14.01,2013-04-30 20:35:00,
2013-04-30 15:40:00,84.2,37.5,28.88,NNE,22,4.9,5.4,19,0.00,,,0.00,VWS V14.01,2013-04-30 20:40:00,
2013-04-30 15:45:00,84.2,37.5,28.88,North,353,4.9,4.9,19,0.00,,,0.00,VWS V14.01,2013-04-30 20:45:00,
2013-04-30 15:50:00,84.2,37.5,28.88,North,353,4.9,4.9,19,0.00,,,0.00,VWS V14.01,2013-04-30 20:50:00,
2013-04-30 15:55:00,84.2,37.5,28.88,North,8,0.0,4.9,19,0.00,,,0.00,VWS V14.01,2013-04-30 20:55:00,
2013-04-30 16:00:00,84.2,37.5,28.88,North,353,2.7,3.1,19,0.00,,,0.00,VWS V14.01,2013-04-30 21:00:00,
2013-04-30 16:05:00,80.4,35.7,28.88,NNE,16,4.0,4.0,20,0.00,,,0.00,VWS V14.01,2013-04-30 21:05:00,
2013-04-30 16:10:00,80.4,35.7,28.88,NNE,16,4.0,4.0,20,0.00,,,0.00,VWS V14.01,2013-04-30 21:10:00,
2013-04-30 16:15:00,80.4,35.7,28.88,ENE,65,3.1,4.0,20,0.00,,,0.00,VWS V14.01,2013-04-30 21:15:00,
2013-04-30 16:20:00,80.4,35.7,28.88,ENE,65,3.1,3.1,20,0.00,,,0.00,VWS V14.01,2013-04-30 21:20:00,
2013-04-30 16:25:00,82.9,36.5,28.88,ENE,65,3.1,3.1,19,0.00,,,0.00,VWS V14.01,2013-04-30 21:25:00,
2013-04-30 16:30:00,82.2,35.9,28.88,ENE,65,3.1,3.1,19,0.00,,,0.00,VWS V14.01,2013-04-30 21:30:00,
2013-04-30 16:35:00,82.2,35.9,28.88,ENE,65,3.1,3.1,19,0.00,,,0.00,VWS V14.01,2013-04-30 21:35:00,
2013-04-30 16:40:00,81.1,36.3,28.88,ENE,65,3.1,3.1,20,0.00,,,0.00,VWS V14.01,2013-04-30 21:40:00,
2013-04-30 16:44:00,81.1,36.3,28.88,ENE,65,3.1,3.1,20,0.00,,,0.00,VWS V14.01,2013-04-30 21:44:00,
2013-04-30 16:49:00,82.2,35.9,28.88,ENE,65,3.1,3.1,19,0.00,,,0.00,VWS V14.01,2013-04-30 21:49:00,
2013-04-30 16:54:00,82.2,35.9,28.88,ENE,65,3.1,3.1,19,0.00,,,0.00,VWS V14.01,2013-04-30 21:54:00,
2013-04-30 16:59:00,80.8,36.0,28.88,ENE,65,3.1,3.1,20,0.00,,,0.00,VWS V14.01,2013-04-30 21:59:00,
2013-04-30 17:04:00,80.6,35.9,28.88,ENE,65,3.1,3.1,20,0.00,,,0.00,VWS V14.01,2013-04-30 22:04:00,
2013-04-30 17:09:00,80.6,35.9,28.88,ENE,65,3.1,3.1,20,0.00,,,0.00,VWS V14.01,2013-04-30 22:09:00,
2013-04-30 17:14:00,80.4,35.7,28.88,ENE,65,3.1,3.1,20,0.00,,,0.00,VWS V14.01,2013-04-30 22:14:00,
2013-04-30 17:19:00,80.4,35.7,28.88,ENE,65,3.1,3.1,20,0.00,,,0.00,VWS V14.01,2013-04-30 22:19:00,
2013-04-30 17:24:00,81.3,36.5,28.88,ENE,65,3.1,3.1,20,0.00,,,0.00,VWS V14.01,2013-04-30 22:24:00,
2013-04-30 17:29:00,81.1,36.3,28.88,ENE,65,3.1,3.1,20,0.00,,,0.00,VWS V14.01,2013-04-30 22:29:00,
2013-04-30 17:34:00,81.1,36.3,28.88,ENE,65,3.1,3.1,20,0.00,,,0.00,VWS V14.01,2013-04-30 22:34:00,
2013-04-30 17:39:00,81.9,36.9,28.88,ENE,65,3.1,3.1,20,0.00,,,0.00,VWS V14.01,2013-04-30 22:39:00,
2013-04-30 17:44:00,81.9,36.9,28.88,ENE,65,3.1,3.1,20,0.00,,,0.00,VWS V14.01,2013-04-30 22:44:00,
2013-04-30 17:49:00,81.9,36.9,28.88,ENE,65,3.1,3.1,20,0.00,,,0.00,VWS V14.01,2013-04-30 22:49:00,
2013-04-30 17:54:00,81.5,36.6,28.88,ENE,65,3.1,3.1,20,0.00,,,0.00,VWS V14.01,2013-04-30 22:54:00,
2013-04-30 17:59:00,80.6,35.9,28.91,ENE,65,3.1,3.1,20,0.00,,,0.00,VWS V14.01,2013-04-30 22:59:00,
2013-04-30 18:04:00,79.7,35.1,28.91,ENE,65,3.1,3.1,20,0.00,,,0.00,VWS V14.01,2013-04-30 23:04:00,
2013-04-30 18:09:00,79.3,34.8,28.91,ENE,65,3.1,3.1,20,0.00,,,0.00,VWS V14.01,2013-04-30 23:09:00,
2013-04-30 18:14:00,79.3,34.8,28.91,ENE,65,3.1,3.1,20,0.00,,,0.00,VWS V14.01,2013-04-30 23:14:00,
2013-04-30 18:19:00,79.3,34.8,28.91,ENE,65,3.1,3.1,20,0.00,,,0.00,VWS V14.01,2013-04-30 23:19:00,
2013-04-30 18:24:00,79.3,34.8,28.91,ENE,65,3.1,3.1,20,0.00,,,0.00,VWS V14.01,2013-04-30 23:24:00,
2013-04-30 18:29:00,79.3,34.8,28.91,ENE,65,3.1,3.1,20,0.00,,,0.00,VWS V14.01,2013-04-30 23:29:00,
2013-04-30 18:34:00,79.3,34.8,28.91,ENE,65,3.1,3.1,20,0.00,,,0.00,VWS V14.01,2013-04-30 23:34:00,
2013-04-30 18:39:00,79.3,34.8,28.91,ENE,65,3.1,3.1,20,0.00,,,0.00,VWS V14.01,2013-04-30 23:39:00,
2013-04-30 18:44:00,79.3,34.8,28.91,ENE,65,3.1,3.1,20,0.00,,,0.00,VWS V14.01,2013-04-30 23:44:00,
2013-04-30 18:49:00,79.3,34.8,28.91,NNE,13,2.7,3.1,20,0.00,,,0.00,VWS V14.01,2013-04-30 23:49:00,
2013-04-30 18:54:00,79.3,34.8,28.91,NNE,13,2.7,2.7,20,0.00,,,0.00,VWS V14.01,2013-04-30 23:54:00,
2013-04-30 18:59:00,79.3,34.8,28.91,NNE,13,2.7,2.7,20,0.00,,,0.00,VWS V14.01,2013-04-30 23:59:00,
2013-04-30 19:04:00,79.3,34.8,28.91,NNE,13,2.7,2.7,20,0.00,,,0.00,VWS V14.01,2013-05-01 00:04:00,
2013-04-30 19:09:00,79.3,34.8,28.91,NE,35,0.0,2.7,20,0.00,,,0.00,VWS V14.01,2013-05-01 00:09:00,
2013-04-30 19:14:00,79.3,34.8,28.91,NE,35,0.0,0.0,20,0.00,,,0.00,VWS V14.01,2013-05-01 00:14:00,
2013-04-30 19:19:00,79.3,34.8,28.91,NNE,13,3.6,3.6,20,0.00,,,0.00,VWS V14.01,2013-05-01 00:19:00,
2013-04-30 19:24:00,79.3,34.8,28.91,North,4,2.7,3.6,20,0.00,,,0.00,VWS V14.01,2013-05-01 00:24:00,
2013-04-30 19:29:00,74.5,32.0,28.91,North,357,3.6,4.0,21,0.00,,,0.00,VWS V14.01,2013-05-01 00:29:00,
2013-04-30 19:34:00,74.5,32.0,28.94,North,357,3.6,3.6,21,0.00,,,0.00,VWS V14.01,2013-05-01 00:34:00,
2013-04-30 19:39:00,74.5,32.0,28.94,NNE,25,3.6,3.6,21,0.00,,,0.00,VWS V14.01,2013-05-01 00:39:00,
2013-04-30 19:44:00,74.5,32.0,28.94,NNE,25,3.6,3.6,21,0.00,,,0.00,VWS V14.01,2013-05-01 00:44:00,
2013-04-30 19:49:00,74.5,32.0,28.94,NNE,28,0.0,3.6,21,0.00,,,0.00,VWS V14.01,2013-05-01 00:49:00,
2013-04-30 19:54:00,74.5,32.0,28.94,NE,52,0.0,0.0,21,0.00,,,0.00,VWS V14.01,2013-05-01 00:54:00,
2013-04-30 19:59:00,74.5,32.0,28.94,NNE,16,3.6,3.6,21,0.00,,,0.00,VWS V14.01,2013-05-01 00:59:00,
2013-04-30 20:04:00,72.9,31.8,28.94,North,0,4.0,4.0,22,0.00,,,0.00,VWS V14.01,2013-05-01 01:04:00,
2013-04-30 20:09:00,72.9,31.8,28.94,NNE,13,3.6,3.6,22,0.00,,,0.00,VWS V14.01,2013-05-01 01:09:00,
2013-04-30 20:14:00,72.9,31.8,28.94,NNE,13,3.6,3.6,22,0.00,,,0.00,VWS V14.01,2013-05-01 01:14:00,
2013-04-30 20:19:00,72.9,31.8,28.94,NNE,12,2.2,3.6,22,0.00,,,0.00,VWS V14.01,2013-05-01 01:19:00,
2013-04-30 20:24:00,72.9,31.8,28.94,North,7,3.1,3.1,22,0.00,,,0.00,VWS V14.01,2013-05-01 01:24:00,
2013-04-30 20:29:00,72.9,31.8,28.94,NNW,332,2.7,4.0,22,0.00,,,0.00,VWS V14.01,2013-05-01 01:29:00,
2013-04-30 20:34:00,72.9,31.8,28.94,NNW,332,2.7,2.7,22,0.00,,,0.00,VWS V14.01,2013-05-01 01:34:00,
2013-04-30 20:39:00,72.9,31.8,28.94,NE,46,2.2,2.7,22,0.00,,,0.00,VWS V14.01,2013-05-01 01:39:00,
2013-04-30 20:44:00,71.4,30.6,28.94,NE,46,2.2,2.2,22,0.00,,,0.00,VWS V14.01,2013-05-01 01:44:00,
2013-04-30 20:49:00,71.4,30.6,28.94,NNE,24,3.6,3.6,22,0.00,,,0.00,VWS V14.01,2013-05-01 01:49:00,
2013-04-30 20:54:00,71.4,30.6,28.94,NNE,24,3.6,3.6,22,0.00,,,0.00,VWS V14.01,2013-05-01 01:54:00,
2013-04-30 20:59:00,71.4,30.6,28.97,North,6,4.0,4.0,22,0.00,,,0.00,VWS V14.01,2013-05-01 01:59:00,
2013-04-30 21:04:00,71.4,30.6,28.97,North,357,3.6,3.6,22,0.00,,,0.00,VWS V14.01,2013-05-01 02:04:00,
2013-04-30 21:09:00,71.4,30.6,28.97,North,357,6.3,6.3,22,0.00,,,0.00,VWS V14.01,2013-05-01 02:09:00,
2013-04-30 21:14:00,71.4,30.6,28.97,NNW,330,3.6,6.3,22,0.00,,,0.00,VWS V14.01,2013-05-01 02:14:00,
2013-04-30 21:19:00,70.0,29.4,28.97,ENE,71,4.0,4.0,22,0.00,,,0.00,VWS V14.01,2013-05-01 02:19:00,
2013-04-30 21:24:00,70.0,29.4,29.00,NE,52,5.8,5.8,22,0.00,,,0.00,VWS V14.01,2013-05-01 02:24:00,
2013-04-30 21:29:00,70.0,29.4,29.00,NNE,26,8.7,8.7,22,0.00,,,0.00,VWS V14.01,2013-05-01 02:29:00,
2013-04-30 21:34:00,70.0,29.4,29.00,NNE,29,5.8,8.7,22,0.00,,,0.00,VWS V14.01,2013-05-01 02:34:00,
2013-04-30 21:39:00,70.0,29.4,29.00,NNE,33,5.8,5.8,22,0.00,,,0.00,VWS V14.01,2013-05-01 02:39:00,
2013-04-30 21:44:00,70.0,29.4,29.00,NNW,341,4.9,5.8,22,0.00,,,0.00,VWS V14.01,2013-05-01 02:44:00,
2013-04-30 21:49:00,70.0,29.4,29.00,NNW,341,4.9,4.9,22,0.00,,,0.00,VWS V14.01,2013-05-01 02:49:00,
2013-04-30 21:54:00,66.9,27.9,29.00,NNW,341,4.9,4.9,23,0.00,,,0.00,VWS V14.01,2013-05-01 02:54:00,
2013-04-30 21:59:00,66.9,27.9,29.00,NNW,341,3.1,4.9,23,0.00,,,0.00,VWS V14.01,2013-05-01 02:59:00,
2013-04-30 22:04:00,66.9,27.9,29.03,NNW,341,3.1,3.1,23,0.00,,,0.00,VWS V14.01,2013-05-01 03:04:00,
2013-04-30 22:09:00,66.9,27.9,29.03,NNE,18,2.7,4.0,23,0.00,,,0.00,VWS V14.01,2013-05-01 03:09:00,
2013-04-30 22:14:00,66.9,27.9,29.03,NNE,18,2.7,2.7,23,0.00,,,0.00,VWS V14.01,2013-05-01 03:14:00,
2013-04-30 22:19:00,66.9,27.9,29.03,NE,44,6.3,6.3,23,0.00,,,0.00,VWS V14.01,2013-05-01 03:19:00,
2013-04-30 22:24:00,64.6,26.0,29.03,NE,44,6.3,6.3,23,0.00,,,0.00,VWS V14.01,2013-05-01 03:24:00,
2013-04-30 22:29:00,64.6,26.0,29.03,North,0,3.6,6.3,23,0.00,,,0.00,VWS V14.01,2013-05-01 03:29:00,
2013-04-30 22:34:00,64.0,26.5,29.03,North,0,3.6,3.6,24,0.00,,,0.00,VWS V14.01,2013-05-01 03:34:00,
2013-04-30 22:39:00,63.7,26.2,29.03,North,357,4.0,4.0,24,0.00,,,0.00,VWS V14.01,2013-05-01 03:39:00,
2013-04-30 22:44:00,63.7,26.2,29.03,North,349,3.6,4.0,24,0.00,,,0.00,VWS V14.01,2013-05-01 03:44:00,
2013-04-30 22:49:00,63.1,25.8,29.03,NE,34,4.0,6.3,24,0.00,,,0.00,VWS V14.01,2013-05-01 03:49:00,
2013-04-30 22:54:00,62.8,25.5,29.03,North,357,4.0,4.0,24,0.00,,,0.00,VWS V14.01,2013-05-01 03:54:00,
2013-04-30 22:59:00,62.8,25.5,29.03,North,353,5.4,5.4,24,0.00,,,0.00,VWS V14.01,2013-05-01 03:59:00,
2013-04-30 23:01:00,62.8,25.5,29.03,North,4,9.6,9.6,24,0.00,,,0.00,VWS V14.01,2013-05-01 04:01:00,
2013-04-30 23:06:00,61.7,25.5,29.03,North,4,9.6,9.6,25,0.00,,,0.00,VWS V14.01,2013-05-01 04:06:00,
2013-04-30 23:11:00,61.5,25.4,29.03,North,4,9.6,9.6,25,0.00,,,0.00,VWS V14.01,2013-05-01 04:11:00,
2013-04-30 23:16:00,61.2,25.1,29.03,North,4,9.6,9.6,25,0.00,,,0.00,VWS V14.01,2013-05-01 04:16:00,
2013-04-30 23:21:00,61.2,25.1,29.03,North,4,9.6,9.6,25,0.00,,,0.00,VWS V14.01,2013-05-01 04:21:00,
2013-04-30 23:26:00,61.2,25.1,29.03,North,4,9.6,9.6,25,0.00,,,0.00,VWS V14.01,2013-05-01 04:26:00,
2013-04-30 23:31:00,61.2,25.1,29.03,North,4,9.6,9.6,25,0.00,,,0.00,VWS V14.01,2013-05-01 04:31:00,
2013-04-30 23:36:00,61.2,25.1,29.06,North,4,9.6,9.6,25,0.00,,,0.00,VWS V14.01,2013-05-01 04:36:00,
2013-04-30 23:41:00,61.2,25.1,29.06,North,4,9.6,9.6,25,0.00,,,0.00,VWS V14.01,2013-05-01 04:41:00,
2013-04-30 23:46:00,61.2,25.1,29.06,North,4,9.6,9.6,25,0.00,,,0.00,VWS V14.01,2013-05-01 04:46:00,
2013-04-30 23:51:00,61.2,25.1,29.06,ENE,57,2.7,9.6,25,0.00,,,0.00,VWS V14.01,2013-05-01 04:51:00,
2013-04-30 23:56:00,61.2,25.1,29.06,ENE,57,2.7,2.7,25,0.00,,,0.00,VWS V14.01,2013-05-01 04:56:00,